Time;durP1;ratioP1;P1;durP2;ratioP2;P2;SDS_P1;SDS_P2;PMS_P1;PMS_P2;Temp;Humidity;BMP_temperature;BMP_pressure;BME280_temperature;BME280_humidity;BME280_pressure;Samples;Min_cycle;Max_cycle;Signal;HPM_P1;HPM_P2
2022/07/26 00:02:56;;;;;;;7.15;1.17;;;19.00;99.90;;;;;;7334507;32;20186;-62
2022/07/26 00:06:58;;;;;;;4.70;1.00;;;18.90;99.90;;;;;;7334132;32;20107;-62
2022/07/26 00:11:00;;;;;;;4.07;0.95;;;18.90;99.90;;;;;;7333205;32;20482;-61
2022/07/26 00:15:09;;;;;;;5.30;1.23;;;18.80;99.90;;;;;;7334289;32;20139;-61
2022/07/26 00:19:11;;;;;;;2.60;0.90;;;18.70;99.90;;;;;;7333444;32;20528;-61
2022/07/26 00:23:13;;;;;;;7.32;1.27;;;18.70;99.90;;;;;;7333997;32;20421;-61
2022/07/26 00:27:28;;;;;;;5.70;1.12;;;18.60;99.90;;;;;;7334591;32;20104;-62
2022/07/26 00:31:30;;;;;;;7.87;1.12;;;18.70;99.90;;;;;;7333413;32;20522;-61
2022/07/26 00:35:32;;;;;;;3.67;1.10;;;18.60;99.90;;;;;;7333429;32;20116;-61
2022/07/26 00:39:34;;;;;;;8.60;1.50;;;18.60;99.90;;;;;;7332462;32;20137;-61
2022/07/26 00:43:36;;;;;;;5.18;1.33;;;18.50;99.90;;;;;;7333416;32;20470;-61
2022/07/26 00:47:38;;;;;;;9.18;1.20;;;18.50;99.90;;;;;;7332663;32;20865;-61
2022/07/26 00:51:40;;;;;;;6.30;1.20;;;18.40;99.90;;;;;;7333445;32;20139;-61
2022/07/26 00:55:42;;;;;;;7.07;1.42;;;18.30;99.90;;;;;;7347605;32;20133;-61
2022/07/26 00:59:43;;;;;;;4.12;1.48;;;18.20;99.90;;;;;;7335209;32;20190;-61
2022/07/26 01:03:49;;;;;;;5.72;1.08;;;18.20;99.90;;;;;;7333676;32;20191;-61
2022/07/26 01:07:52;;;;;;;5.05;1.30;;;18.10;99.90;;;;;;7332397;32;20203;-61
2022/07/26 01:11:54;;;;;;;3.28;1.12;;;18.20;99.90;;;;;;7333018;32;20640;-61
2022/07/26 01:15:56;;;;;;;3.72;1.08;;;18.30;99.90;;;;;;7333137;32;20271;-62
2022/07/26 01:19:57;;;;;;;7.55;1.15;;;18.30;99.90;;;;;;7332481;32;20137;-62
2022/07/26 01:23:59;;;;;;;7.12;1.60;;;18.40;99.90;;;;;;7332570;32;20099;-61
2022/07/26 01:28:02;;;;;;;6.00;1.20;;;18.40;99.90;;;;;;7332475;32;20556;-61
2022/07/26 01:32:05;;;;;;;3.65;1.00;;;18.40;99.90;;;;;;7333305;32;20112;-61
2022/07/26 01:36:07;;;;;;;2.60;0.77;;;18.40;99.90;;;;;;7333237;32;20119;-61
2022/07/26 01:40:10;;;;;;;4.12;1.10;;;18.40;99.90;;;;;;7331620;32;20168;-61
2022/07/26 01:44:11;;;;;;;6.62;1.30;;;18.40;99.90;;;;;;7332539;32;20126;-61
2022/07/26 01:48:14;;;;;;;3.28;1.02;;;18.50;99.90;;;;;;7332201;32;20774;-62
2022/07/26 01:52:17;;;;;;;4.35;0.95;;;18.50;99.90;;;;;;7332919;32;20226;-61
2022/07/26 01:56:19;;;;;;;5.28;1.02;;;18.60;99.90;;;;;;7349438;32;20560;-61
2022/07/26 02:00:21;;;;;;;5.10;1.12;;;18.60;99.90;;;;;;7335703;32;20526;-61
2022/07/26 02:08:42;;;;;;;4.85;0.98;;;18.50;99.90;;;;;;7336508;32;20099;-61
2022/07/26 02:12:44;;;;;;;5.05;0.95;;;18.50;99.90;;;;;;7336667;32;20120;-61
2022/07/26 02:16:46;;;;;;;4.78;1.25;;;18.50;99.90;;;;;;7336332;32;20293;-62
2022/07/26 02:20:47;;;;;;;4.37;0.80;;;18.50;99.90;;;;;;7332991;32;20130;-61
2022/07/26 02:24:50;;;;;;;5.32;1.20;;;18.50;99.90;;;;;;7338902;32;20616;-61
2022/07/26 02:28:51;;;;;;;6.45;1.15;;;18.50;99.90;;;;;;7335741;32;20318;-61
2022/07/26 02:32:53;;;;;;;8.43;1.30;;;18.50;99.90;;;;;;7336237;32;20134;-61
2022/07/26 02:36:55;;;;;;;8.68;1.30;;;18.50;99.90;;;;;;7336238;32;20139;-61
2022/07/26 02:40:57;;;;;;;4.20;1.10;;;18.50;99.90;;;;;;7335881;32;20111;-62
2022/07/26 02:44:58;;;;;;;8.55;1.45;;;18.50;99.90;;;;;;7335855;32;20492;-62
2022/07/26 02:49:00;;;;;;;4.32;0.98;;;18.50;99.90;;;;;;7335332;32;20111;-61
2022/07/26 02:53:02;;;;;;;4.82;1.10;;;18.50;99.90;;;;;;7335214;32;20478;-61
2022/07/26 02:57:04;;;;;;;4.65;1.15;;;18.40;99.90;;;;;;7341445;32;20125;-61
2022/07/26 03:01:06;;;;;;;6.97;1.30;;;18.40;99.90;;;;;;7360485;32;20214;-61
2022/07/26 03:05:08;;;;;;;6.80;1.40;;;18.40;99.90;;;;;;7361368;32;20111;-62
2022/07/26 03:09:10;;;;;;;6.43;1.48;;;18.30;99.90;;;;;;7360195;32;20203;-61
2022/07/26 03:13:12;;;;;;;5.97;1.10;;;18.30;99.90;;;;;;7360384;32;20687;-61
2022/07/26 03:17:13;;;;;;;4.10;1.27;;;18.30;99.90;;;;;;7359981;32;20537;-61
2022/07/26 03:21:15;;;;;;;6.57;1.25;;;18.20;99.90;;;;;;7359481;32;20161;-61
2022/07/26 03:25:17;;;;;;;5.03;1.23;;;18.10;99.90;;;;;;7360692;32;20222;-61
2022/07/26 03:29:18;;;;;;;5.37;1.17;;;18.20;99.90;;;;;;7359487;32;20133;-61
2022/07/26 03:33:20;;;;;;;7.60;1.52;;;18.20;99.90;;;;;;7359935;32;20593;-61
2022/07/26 03:37:22;;;;;;;4.68;1.30;;;18.10;99.90;;;;;;7360358;32;20228;-61
2022/07/26 03:41:24;;;;;;;7.10;1.80;;;18.00;99.90;;;;;;7359452;32;20164;-61
2022/07/26 03:45:26;;;;;;;11.27;1.48;;;18.10;99.90;;;;;;7359442;32;20236;-61
2022/07/26 03:49:27;;;;;;;7.90;1.62;;;18.00;99.90;;;;;;7358756;32;20520;-62
2022/07/26 03:53:29;;;;;;;7.90;1.20;;;17.90;99.90;;;;;;7359162;32;20112;-61
2022/07/26 03:57:31;;;;;;;5.07;1.27;;;17.90;99.90;;;;;;7342536;32;20112;-61
2022/07/26 04:01:34;;;;;;;6.57;1.60;;;17.90;99.90;;;;;;7359192;32;20171;-61
2022/07/26 04:05:36;;;;;;;13.35;1.62;;;17.90;99.90;;;;;;7359691;32;20190;-61
2022/07/26 04:09:37;;;;;;;4.93;1.10;;;17.90;99.90;;;;;;7358910;32;20132;-61
2022/07/26 04:13:39;;;;;;;6.22;1.60;;;17.80;99.90;;;;;;7358017;32;20158;-61
2022/07/26 04:17:42;;;;;;;7.80;1.50;;;17.80;99.90;;;;;;7357933;32;20140;-61
2022/07/26 04:21:44;;;;;;;10.52;1.60;;;17.80;99.90;;;;;;7358108;32;20209;-61
2022/07/26 04:25:45;;;;;;;7.10;1.42;;;17.80;99.90;;;;;;7358755;32;20186;-61
2022/07/26 04:29:47;;;;;;;7.18;1.70;;;17.80;99.90;;;;;;7357876;32;20188;-61
2022/07/26 04:33:49;;;;;;;10.27;1.98;;;17.80;99.90;;;;;;7358004;32;20175;-62
2022/07/26 04:37:50;;;;;;;10.32;1.85;;;17.80;99.90;;;;;;7352345;32;20147;-61
2022/07/26 04:41:52;;;;;;;10.43;1.90;;;17.80;99.90;;;;;;7344284;32;20184;-61
2022/07/26 04:45:56;;;;;;;10.25;1.90;;;17.70;99.90;;;;;;7355942;32;20138;-61
2022/07/26 04:49:58;;;;;;;6.87;1.98;;;17.60;99.90;;;;;;7355535;32;20107;-65
2022/07/26 04:53:59;;;;;;;8.52;2.62;;;17.50;99.90;;;;;;7354212;32;20176;-65
2022/07/26 04:58:01;;;;;;;10.13;2.03;;;17.50;99.90;;;;;;7344225;32;20206;-65
2022/07/26 05:02:03;;;;;;;8.90;1.80;;;17.50;99.90;;;;;;7358459;32;20156;-65
2022/07/26 05:06:05;;;;;;;8.10;1.92;;;17.50;99.90;;;;;;7358243;32;20107;-65
2022/07/26 05:10:08;;;;;;;10.23;1.92;;;17.40;99.90;;;;;;7357548;32;20133;-66
2022/07/26 05:14:10;;;;;;;8.77;1.95;;;17.50;99.90;;;;;;7358173;32;20131;-65
2022/07/26 05:18:12;;;;;;;7.75;2.10;;;17.50;99.90;;;;;;7357579;32;20728;-65
2022/07/26 05:22:14;;;;;;;7.85;2.33;;;17.60;99.90;;;;;;7357855;32;20142;-66
2022/07/26 05:26:16;;;;;;;13.13;2.25;;;17.60;99.90;;;;;;7357893;32;20512;-65
2022/07/26 05:30:18;;;;;;;11.20;2.08;;;17.60;99.90;;;;;;7356891;32;20818;-65
2022/07/26 05:34:19;;;;;;;11.88;2.83;;;17.70;99.90;;;;;;7361761;32;20131;-65
2022/07/26 05:38:21;;;;;;;12.52;2.35;;;17.60;99.90;;;;;;7362131;32;20111;-65
2022/07/26 05:42:24;;;;;;;8.55;2.05;;;17.60;99.90;;;;;;7363023;32;20131;-65
2022/07/26 05:46:26;;;;;;;8.30;1.90;;;17.70;99.90;;;;;;7362697;32;20261;-65
2022/07/26 05:50:28;;;;;;;13.95;2.40;;;17.80;99.90;;;;;;7362212;32;20557;-65
2022/07/26 05:54:29;;;;;;;9.63;2.12;;;17.80;99.90;;;;;;7355077;32;20164;-65
2022/07/26 05:58:31;;;;;;;9.68;2.25;;;17.90;99.90;;;;;;7350926;32;20600;-65
2022/07/26 06:02:33;;;;;;;8.70;2.30;;;17.90;99.90;;;;;;7362555;32;20127;-65
2022/07/26 06:06:35;;;;;;;14.95;2.47;;;18.10;99.90;;;;;;7362385;32;20233;-65
2022/07/26 06:10:36;;;;;;;8.55;2.00;;;18.00;99.90;;;;;;7360897;32;20218;-65
2022/07/26 06:14:38;;;;;;;11.40;2.53;;;18.00;99.90;;;;;;7362044;32;20176;-65
2022/07/26 06:18:40;;;;;;;11.48;2.75;;;18.10;99.90;;;;;;7361233;32;20839;-65
2022/07/26 06:22:42;;;;;;;11.70;2.28;;;18.10;99.90;;;;;;7361959;32;20121;-65
2022/07/26 06:26:45;;;;;;;17.92;2.95;;;18.20;99.90;;;;;;7361501;32;20107;-65
2022/07/26 06:30:47;;;;;;;11.45;3.20;;;18.30;99.90;;;;;;7360702;32;20686;-65
2022/07/26 06:34:49;;;;;;;12.02;2.90;;;18.40;99.90;;;;;;7361944;32;20194;-65
2022/07/26 06:38:51;;;;;;;14.48;3.25;;;18.60;99.90;;;;;;7360597;32;20110;-66
2022/07/26 06:42:53;;;;;;;17.52;3.10;;;18.80;99.90;;;;;;7360735;32;20145;-66
2022/07/26 06:46:54;;;;;;;10.68;2.75;;;18.90;99.90;;;;;;7361094;32;20146;-65
2022/07/26 06:50:56;;;;;;;12.25;2.95;;;19.00;99.90;;;;;;7360609;32;20186;-66
2022/07/26 06:54:58;;;;;;;11.88;2.62;;;19.20;99.90;;;;;;7351426;32;20123;-66
2022/07/26 06:59:00;;;;;;;13.10;3.08;;;19.20;99.90;;;;;;7352301;32;20103;-63
2022/07/26 07:03:09;;;;;;;13.73;3.08;;;19.10;99.90;;;;;;7360929;32;20214;-64
2022/07/26 07:07:11;;;;;;;16.58;3.97;;;19.20;99.90;;;;;;7360900;32;20134;-65
2022/07/26 07:11:13;;;;;;;8.57;2.70;;;19.40;99.90;;;;;;7359357;32;20164;-64
2022/07/26 07:15:18;;;;;;;12.50;3.00;;;19.40;99.90;;;;;;7359728;32;20126;-64
2022/07/26 07:19:20;;;;;;;16.83;3.17;;;19.50;99.90;;;;;;7359494;32;20127;-64
2022/07/26 07:23:22;;;;;;;12.20;2.67;;;19.60;99.90;;;;;;7359893;32;20229;-64
2022/07/26 07:27:23;;;;;;;11.55;2.53;;;19.60;99.90;;;;;;7360471;32;20158;-64
2022/07/26 07:31:28;;;;;;;9.10;2.50;;;19.50;99.90;;;;;;7358771;32;20148;-65
2022/07/26 07:35:31;;;;;;;11.63;2.70;;;19.50;99.90;;;;;;7360066;32;20127;-64
2022/07/26 07:39:33;;;;;;;13.50;2.53;;;19.60;99.90;;;;;;7359050;32;20128;-64
2022/07/26 07:43:39;;;;;;;12.40;3.35;;;19.80;99.90;;;;;;7359389;32;20561;-64
2022/07/26 07:47:41;;;;;;;11.90;3.37;;;19.80;99.90;;;;;;7359072;32;20191;-64
2022/07/26 07:51:43;;;;;;;10.52;2.65;;;19.80;99.90;;;;;;7359795;32;20164;-64
2022/07/26 07:55:46;;;;;;;10.13;3.35;;;19.90;99.90;;;;;;7344110;32;20610;-65
2022/07/26 07:59:48;;;;;;;13.05;2.92;;;20.00;99.90;;;;;;7356656;32;20116;-64
2022/07/26 08:03:49;;;;;;;20.52;3.55;;;20.00;99.90;;;;;;7356888;32;20172;-67
2022/07/26 08:07:51;;;;;;;12.52;2.83;;;20.20;99.90;;;;;;7357736;32;20107;-67
2022/07/26 08:11:53;;;;;;;14.82;3.25;;;20.30;99.90;;;;;;7359326;32;20264;-67
2022/07/26 08:15:55;;;;;;;14.80;3.60;;;20.30;99.90;;;;;;7356963;32;20440;-67
2022/07/26 08:20:00;;;;;;;8.15;2.40;;;20.50;99.90;;;;;;7358305;32;20473;-65
2022/07/26 08:24:02;;;;;;;12.88;3.30;;;20.60;99.90;;;;;;7359142;32;20184;-67
2022/07/26 08:28:04;;;;;;;13.25;2.92;;;20.60;99.90;;;;;;7358313;32;20126;-67
2022/07/26 08:32:06;;;;;;;15.27;2.97;;;20.60;99.90;;;;;;7358959;32;20134;-67
2022/07/26 08:36:07;;;;;;;8.60;2.70;;;20.80;99.90;;;;;;7358472;32;20329;-65
2022/07/26 08:40:09;;;;;;;9.90;3.00;;;20.90;99.90;;;;;;7357143;32;20134;-66
2022/07/26 08:44:11;;;;;;;11.40;3.10;;;21.00;99.90;;;;;;7357977;32;20171;-67
2022/07/26 08:48:13;;;;;;;8.75;2.42;;;21.40;99.90;;;;;;7357900;32;20129;-67
2022/07/26 08:52:18;;;;;;;8.50;2.72;;;22.30;99.90;;;;;;7358562;32;20191;-66
2022/07/26 08:56:21;;;;;;;11.38;2.95;;;22.20;99.90;;;;;;7340716;32;20179;-67
2022/07/26 09:00:28;;;;;;;8.88;2.30;;;22.30;99.90;;;;;;7357401;32;20170;-67
2022/07/26 09:04:34;;;;;;;12.18;2.30;;;22.80;99.90;;;;;;7358903;32;20095;-66
2022/07/26 09:08:50;;;;;;;6.57;2.00;;;23.40;99.90;;;;;;7363235;32;20111;-67
2022/07/26 09:12:56;;;;;;;6.70;2.42;;;23.70;99.90;;;;;;7365134;32;20119;-67
2022/07/26 09:16:59;;;;;;;8.40;2.53;;;23.20;99.90;;;;;;7366651;32;20167;-68
2022/07/26 09:21:01;;;;;;;10.13;2.90;;;22.90;99.90;;;;;;7365965;32;20821;-68
2022/07/26 09:25:17;;;;;;;10.55;2.35;;;22.80;99.90;;;;;;7366497;32;20243;-67
2022/07/26 09:29:19;;;;;;;7.45;2.37;;;22.60;99.90;;;;;;7366116;32;20209;-67
2022/07/26 09:33:21;;;;;;;12.45;2.62;;;22.20;99.90;;;;;;7366876;32;20156;-68
2022/07/26 09:37:42;;;;;;;4.70;2.30;;;21.90;99.90;;;;;;7366601;32;20164;-67
2022/07/26 09:41:44;;;;;;;11.88;2.97;;;21.50;99.90;;;;;;7364950;32;20587;-67
2022/07/26 09:46:01;;;;;;;8.18;2.50;;;21.30;99.90;;;;;;7365986;32;20157;-67
2022/07/26 09:50:13;;;;;;;8.60;3.50;;;20.70;99.90;;;;;;7365584;32;20106;-68
2022/07/26 09:54:34;;;;;;;6.80;2.95;;;20.40;99.90;;;;;;7360987;32;20805;-67
2022/07/26 09:58:37;;;;;;;12.63;4.22;;;20.20;99.90;;;;;;7355523;32;20127;-65
2022/07/26 10:02:38;;;;;;;10.90;5.12;;;20.00;99.90;;;;;;7366255;32;20202;-67
2022/07/26 10:06:41;;;;;;;7.62;4.00;;;20.20;99.90;;;;;;7365578;32;20179;-67
2022/07/26 10:10:54;;;;;;;6.53;3.87;;;20.30;99.90;;;;;;7365446;32;20580;-68
2022/07/26 10:14:56;;;;;;;11.82;4.05;;;20.50;99.90;;;;;;7363925;32;20107;-68
2022/07/26 10:18:58;;;;;;;7.75;3.95;;;20.90;99.90;;;;;;7362585;32;20749;-68
2022/07/26 10:23:01;;;;;;;9.52;2.72;;;21.90;99.90;;;;;;7361919;32;20158;-68
2022/07/26 10:27:04;;;;;;;7.45;2.47;;;22.90;99.90;;;;;;7361770;32;20126;-67
2022/07/26 10:31:30;;;;;;;8.07;2.35;;;23.60;99.90;;;;;;7361204;32;20152;-68
2022/07/26 10:35:35;;;;;;;7.57;1.50;;;24.30;99.90;;;;;;7361680;32;20098;-68
2022/07/26 10:39:38;;;;;;;5.07;1.48;;;24.80;99.90;;;;;;7361014;32;20223;-67
2022/07/26 10:43:40;;;;;;;6.60;1.70;;;25.40;99.90;;;;;;7361548;32;20131;-68
2022/07/26 10:48:29;;;;;;;6.00;1.80;;;25.50;99.90;;;;;;7360262;32;20395;-67
2022/07/26 10:52:31;;;;;;;4.97;1.62;;;25.40;99.90;;;;;;7358865;32;20131;-68
2022/07/26 10:56:33;;;;;;;8.23;1.85;;;24.10;99.90;;;;;;7357833;32;20129;-68
2022/07/26 11:00:35;;;;;;;4.15;1.52;;;22.80;99.90;;;;;;7334490;32;20159;-68
2022/07/26 11:04:37;;;;;;;4.68;2.45;;;22.00;99.90;;;;;;7335648;32;20180;-67
2022/07/26 11:08:39;;;;;;;3.72;1.55;;;21.60;99.90;;;;;;7334130;32;20168;-66
2022/07/26 11:12:56;;;;;;;1.73;1.30;;;21.20;99.90;;;;;;7333556;32;20198;-66
2022/07/26 11:16:58;;;;;;;2.97;1.20;;;21.00;99.90;;;;;;7335254;32;20131;-67
2022/07/26 11:21:17;;;;;;;2.83;1.30;;;20.50;99.90;;;;;;7333660;32;20123;-67
2022/07/26 11:25:22;;;;;;;3.65;0.80;;;20.40;99.90;;;;;;7334411;32;20171;-67
2022/07/26 11:29:28;;;;;;;1.92;0.60;;;20.30;99.90;;;;;;7333858;32;20210;-67
2022/07/26 11:33:43;;;;;;;;;;;20.20;99.90;;;;;;7334664;32;20163;-67
2022/07/26 11:37:56;;;;;;;2.00;0.62;;;20.20;99.90;;;;;;7334228;32;20047;-67
2022/07/26 11:42:13;;;;;;;1.27;0.40;;;20.30;99.90;;;;;;7334143;32;20131;-67
2022/07/26 11:46:16;;;;;;;1.17;0.50;;;20.30;99.90;;;;;;7334623;32;20107;-68
2022/07/26 11:50:18;;;;;;;1.33;0.50;;;20.50;99.90;;;;;;7333629;32;20334;-68
2022/07/26 11:54:29;;;;;;;0.52;0.20;;;20.70;99.90;;;;;;7340417;32;20583;-68
2022/07/26 11:58:31;;;;;;;;;;;21.50;99.90;;;;;;7343653;32;20157;-68
2022/07/26 12:02:32;;;;;;;0.80;0.40;;;22.00;99.90;;;;;;7333904;32;20019;-68
2022/07/26 12:06:37;;;;;;;1.65;0.40;;;22.00;99.90;;;;;;7334382;32;20131;-68
2022/07/26 12:10:39;;;;;;;0.73;0.30;;;22.40;99.90;;;;;;7333557;32;20107;-68
2022/07/26 12:14:40;;;;;;;1.60;1.00;;;22.40;99.90;;;;;;7331674;32;20180;-68
2022/07/26 12:18:50;;;;;;;1.77;0.62;;;22.70;99.90;;;;;;7332607;32;20524;-68
2022/07/26 12:22:54;;;;;;;1.62;0.60;;;23.00;99.90;;;;;;7333695;32;20526;-66
2022/07/26 12:27:07;;;;;;;1.02;0.30;;;23.20;99.90;;;;;;7333175;32;20756;-67
2022/07/26 12:31:24;;;;;;;0.95;0.40;;;23.70;99.90;;;;;;7331978;32;20139;-67
2022/07/26 12:35:32;;;;;;;2.40;0.70;;;23.80;99.90;;;;;;7333357;32;20134;-67
2022/07/26 12:39:34;;;;;;;1.35;0.50;;;23.60;99.90;;;;;;7332569;32;20172;-67
2022/07/26 12:43:40;;;;;;;1.10;0.50;;;23.50;99.90;;;;;;7332693;32;20201;-67
2022/07/26 12:47:50;;;;;;;1.27;0.50;;;23.70;99.90;;;;;;7332490;32;20135;-66
2022/07/26 12:51:52;;;;;;;0.80;0.40;;;23.50;99.90;;;;;;7332389;32;20133;-67
2022/07/26 12:55:54;;;;;;;2.53;0.65;;;23.70;99.90;;;;;;7348909;32;20107;-67
2022/07/26 12:59:56;;;;;;;1.42;0.60;;;23.70;99.90;;;;;;7332648;32;20116;-67
2022/07/26 13:03:59;;;;;;;1.90;0.62;;;23.20;99.90;;;;;;7332797;32;20214;-67
2022/07/26 13:08:00;;;;;;;3.00;0.60;;;22.80;99.90;;;;;;7332059;32;20134;-67
2022/07/26 13:12:04;;;;;;;3.00;0.50;;;22.50;99.90;;;;;;7333178;32;20142;-67
2022/07/26 13:16:06;;;;;;;2.00;0.40;;;22.60;99.90;;;;;;7331172;32;20164;-67
2022/07/26 13:20:12;;;;;;;1.42;0.52;;;22.50;99.90;;;;;;7331765;32;20472;-67
2022/07/26 13:24:17;;;;;;;1.23;0.40;;;22.80;99.90;;;;;;7332858;32;20889;-67
2022/07/26 13:28:20;;;;;;;0.95;0.37;;;23.20;99.90;;;;;;7332055;32;20116;-67
2022/07/26 13:32:22;;;;;;;0.77;0.40;;;22.90;99.90;;;;;;7331628;32;20175;-67
2022/07/26 13:36:24;;;;;;;1.02;0.50;;;22.60;99.90;;;;;;7332179;32;20126;-67
2022/07/26 13:40:26;;;;;;;2.45;0.40;;;22.50;99.90;;;;;;7331364;32;20148;-67
2022/07/26 13:44:32;;;;;;;2.47;0.50;;;22.70;99.90;;;;;;7332557;32;20133;-67
2022/07/26 13:48:34;;;;;;;1.85;0.60;;;22.80;99.90;;;;;;7332208;32;20120;-67
2022/07/26 13:52:36;;;;;;;2.75;0.50;;;22.40;99.90;;;;;;7332396;32;20171;-67
2022/07/26 13:56:38;;;;;;;1.45;0.52;;;22.20;99.90;;;;;;7362031;32;20202;-67
2022/07/26 14:00:40;;;;;;;2.97;0.47;;;22.00;99.90;;;;;;7336208;32;20451;-67
2022/07/26 14:04:42;;;;;;;2.97;0.40;;;21.80;99.90;;;;;;7336328;32;20455;-67
2022/07/26 14:08:44;;;;;;;3.90;0.60;;;21.70;99.90;;;;;;7336050;32;20123;-67
2022/07/26 14:12:46;;;;;;;2.60;0.70;;;21.60;99.90;;;;;;7335022;32;20488;-67
2022/07/26 14:16:48;;;;;;;2.08;0.80;;;21.30;99.90;;;;;;7336407;32;20266;-67
2022/07/26 14:20:50;;;;;;;1.80;0.62;;;21.20;99.90;;;;;;7335439;32;20772;-67
2022/07/26 14:24:52;;;;;;;1.80;0.80;;;21.10;99.90;;;;;;7335634;32;20127;-68
2022/07/26 14:28:54;;;;;;;5.50;1.17;;;20.90;99.90;;;;;;7335184;32;20244;-67
2022/07/26 14:32:55;;;;;;;10.80;2.62;;;20.80;99.90;;;;;;7336012;32;20163;-67
2022/07/26 14:36:57;;;;;;;8.00;2.65;;;20.00;99.90;;;;;;7334812;32;20108;-67
2022/07/26 14:41:00;;;;;;;6.87;2.10;;;19.10;99.90;;;;;;7335574;32;20127;-66
2022/07/26 14:45:01;;;;;;;7.10;1.95;;;18.80;99.90;;;;;;7336046;32;20705;-67
2022/07/26 14:49:03;;;;;;;3.60;1.40;;;18.70;99.90;;;;;;7335491;32;20128;-67
2022/07/26 14:53:05;;;;;;;6.57;1.67;;;18.70;99.90;;;;;;7334286;32;20119;-68
2022/07/26 14:57:07;;;;;;;2.85;1.60;;;18.80;99.90;;;;;;7352995;32;20143;-67
2022/07/26 15:01:09;;;;;;;3.58;0.90;;;19.20;99.90;;;;;;7333465;32;20169;-67
2022/07/26 15:05:13;;;;;;;2.90;0.90;;;19.30;99.90;;;;;;7334783;32;20178;-67
2022/07/26 15:09:14;;;;;;;3.33;0.80;;;19.80;99.90;;;;;;7334051;32;20292;-67
2022/07/26 15:13:17;;;;;;;1.52;0.77;;;20.20;99.90;;;;;;7334143;32;20578;-67
2022/07/26 15:17:19;;;;;;;2.40;0.95;;;20.10;99.90;;;;;;7335358;32;20108;-67
2022/07/26 15:21:20;;;;;;;2.95;1.00;;;19.90;99.90;;;;;;7334595;32;20133;-67
2022/07/26 15:25:22;;;;;;;1.90;0.70;;;19.60;99.90;;;;;;7335066;32;20112;-67
2022/07/26 15:29:24;;;;;;;2.30;0.90;;;19.50;99.90;;;;;;7333832;32;20167;-67
2022/07/26 15:33:26;;;;;;;1.73;0.77;;;19.40;99.90;;;;;;7334929;32;20208;-67
2022/07/26 15:37:28;;;;;;;4.53;1.08;;;19.20;99.90;;;;;;7334362;32;20227;-67
2022/07/26 15:41:30;;;;;;;1.60;0.98;;;19.20;99.90;;;;;;7333647;32;20171;-67
2022/07/26 15:45:31;;;;;;;3.03;0.95;;;19.10;99.90;;;;;;7334091;32;20120;-67
2022/07/26 15:49:34;;;;;;;1.92;0.75;;;19.00;99.90;;;;;;7333371;32;20108;-66
2022/07/26 15:53:43;;;;;;;;;;;18.80;99.90;;;;;;7336139;32;20515;-67
2022/07/26 15:57:47;;;;;;;1.23;0.60;;;18.70;99.90;;;;;;7347846;32;20621;-67
2022/07/26 16:01:49;;;;;;;3.03;0.93;;;18.80;99.90;;;;;;7333605;32;20256;-66
2022/07/26 16:05:51;;;;;;;3.17;0.88;;;18.90;99.90;;;;;;7333797;32;20173;-65
2022/07/26 16:09:52;;;;;;;3.87;1.10;;;18.90;99.90;;;;;;7333146;32;20131;-67
2022/07/26 16:13:54;;;;;;;2.85;1.00;;;18.90;99.90;;;;;;7332210;32;20765;-67
2022/07/26 16:18:03;;;;;;;2.67;0.90;;;18.90;99.90;;;;;;7332070;32;20150;-67
2022/07/26 16:22:07;;;;;;;3.03;0.77;;;18.90;99.90;;;;;;7333306;32;20112;-67
2022/07/26 16:26:09;;;;;;;3.42;0.98;;;19.20;99.90;;;;;;7333335;32;20497;-67
2022/07/26 16:30:12;;;;;;;3.58;1.20;;;19.20;99.90;;;;;;7331646;32;20123;-66
2022/07/26 16:34:14;;;;;;;4.15;1.25;;;19.20;99.90;;;;;;7332645;32;20431;-67
2022/07/26 16:38:16;;;;;;;5.80;1.50;;;19.00;99.90;;;;;;7332053;32;20111;-67
2022/07/26 16:42:17;;;;;;;2.60;1.00;;;19.00;99.90;;;;;;7332412;32;20229;-67
2022/07/26 16:46:20;;;;;;;4.97;1.17;;;19.00;99.90;;;;;;7332430;32;20210;-67
2022/07/26 16:50:22;;;;;;;5.03;1.20;;;19.10;99.90;;;;;;7331930;32;20130;-66
2022/07/26 16:54:28;;;;;;;4.18;1.52;;;19.20;99.90;;;;;;7339867;32;20166;-67
2022/07/26 16:58:30;;;;;;;5.30;1.60;;;19.10;99.90;;;;;;7342739;32;20518;-67
2022/07/26 17:02:32;;;;;;;3.03;1.50;;;19.10;99.90;;;;;;7332718;32;20120;-67
2022/07/26 17:06:34;;;;;;;5.30;1.90;;;19.10;99.90;;;;;;7332458;32;20723;-67
2022/07/26 17:10:35;;;;;;;5.10;1.20;;;19.10;99.90;;;;;;7331626;32;20175;-67
2022/07/26 17:14:37;;;;;;;3.35;0.90;;;19.20;99.90;;;;;;7331717;32;20167;-67
2022/07/26 17:18:39;;;;;;;4.45;0.98;;;19.30;99.90;;;;;;7331097;32;20275;-67
2022/07/26 17:22:40;;;;;;;5.28;1.00;;;19.20;99.90;;;;;;7332146;32;20174;-66
2022/07/26 17:26:42;;;;;;;6.15;1.10;;;19.00;99.90;;;;;;7332784;32;20790;-68
2022/07/26 17:30:44;;;;;;;4.75;1.30;;;18.90;99.90;;;;;;7336064;32;20557;-68
2022/07/26 17:34:45;;;;;;;4.32;1.05;;;19.00;99.90;;;;;;7337342;32;20128;-68
2022/07/26 17:38:47;;;;;;;5.62;0.90;;;18.90;99.90;;;;;;7336769;32;20137;-67
2022/07/26 17:42:49;;;;;;;5.03;1.17;;;18.90;99.90;;;;;;7336750;32;20202;-68
2022/07/26 17:46:56;;;;;;;4.07;0.70;;;18.70;99.90;;;;;;7337619;32;20130;-68
2022/07/26 17:50:57;;;;;;;6.10;1.93;;;18.60;99.90;;;;;;7336037;32;20139;-67
2022/07/26 17:55:00;;;;;;;4.37;1.00;;;18.60;99.90;;;;;;7346537;32;20259;-68
2022/07/26 17:59:02;;;;;;;3.65;0.70;;;18.60;99.90;;;;;;7342806;32;20799;-68
2022/07/26 18:03:04;;;;;;;7.28;0.88;;;18.50;99.90;;;;;;7337083;32;20176;-67
2022/07/26 18:07:05;;;;;;;4.72;0.80;;;18.50;99.90;;;;;;7322767;32;20137;-67
2022/07/26 18:11:08;;;;;;;4.22;0.88;;;18.40;99.90;;;;;;7335182;32;20160;-68
2022/07/26 18:15:10;;;;;;;4.43;0.85;;;18.40;99.90;;;;;;7335828;32;20822;-67
2022/07/26 18:19:13;;;;;;;4.70;0.70;;;18.30;99.90;;;;;;7335862;32;20111;-67
2022/07/26 18:23:15;;;;;;;6.62;0.95;;;18.40;99.90;;;;;;7335846;32;20116;-65
2022/07/26 18:27:17;;;;;;;3.78;0.90;;;18.40;99.90;;;;;;7336122;32;20165;-68
2022/07/26 18:31:18;;;;;;;3.35;0.95;;;18.20;99.90;;;;;;7335836;32;20107;-68
2022/07/26 18:35:21;;;;;;;3.95;0.80;;;18.20;99.90;;;;;;7336405;32;20131;-67
2022/07/26 18:39:23;;;;;;;5.90;1.20;;;18.20;99.90;;;;;;7334455;32;20209;-67
2022/07/26 18:43:33;;;;;;;6.93;1.00;;;18.20;99.90;;;;;;7335790;32;20131;-67
2022/07/26 18:47:35;;;;;;;5.55;1.23;;;18.20;99.90;;;;;;7335809;32;20153;-68
2022/07/26 18:51:36;;;;;;;6.57;1.10;;;18.20;99.90;;;;;;7334958;32;20131;-68
2022/07/26 18:55:40;;;;;;;5.72;0.88;;;18.10;99.90;;;;;;7350370;32;20115;-68
2022/07/26 18:59:42;;;;;;;5.22;1.17;;;18.10;99.90;;;;;;7337225;32;20120;-68
2022/07/26 19:03:43;;;;;;;6.07;0.95;;;18.10;99.90;;;;;;7336141;32;20272;-68
2022/07/26 19:07:45;;;;;;;5.75;1.17;;;18.00;99.90;;;;;;7334905;32;20103;-68
2022/07/26 19:11:47;;;;;;;6.00;1.40;;;18.00;99.90;;;;;;7335336;32;20173;-68
2022/07/26 19:15:49;;;;;;;5.60;1.30;;;17.90;99.90;;;;;;7334343;32;20199;-68
2022/07/26 19:19:51;;;;;;;6.85;1.55;;;17.90;99.90;;;;;;7334417;32;20131;-68
2022/07/26 19:23:54;;;;;;;5.62;1.40;;;17.90;99.90;;;;;;7335568;32;20498;-68
2022/07/26 19:27:56;;;;;;;5.72;1.00;;;17.80;99.90;;;;;;7335001;32;20846;-67
2022/07/26 19:31:58;;;;;;;6.40;1.10;;;17.70;99.90;;;;;;7334821;32;20128;-68
2022/07/26 19:36:00;;;;;;;6.10;1.20;;;17.60;99.90;;;;;;7334821;32;20262;-67
2022/07/26 19:40:02;;;;;;;7.60;1.25;;;17.60;99.90;;;;;;7334278;32;20134;-66
2022/07/26 19:44:04;;;;;;;5.82;0.93;;;17.50;99.90;;;;;;7335301;32;20129;-64
2022/07/26 19:48:06;;;;;;;5.43;1.00;;;17.50;99.90;;;;;;7334445;32;20180;-63
2022/07/26 19:52:08;;;;;;;6.85;1.17;;;17.40;99.90;;;;;;7333106;32;20127;-64
2022/07/26 19:56:13;;;;;;;7.05;1.27;;;17.40;99.90;;;;;;7352735;32;20103;-64
2022/07/26 20:00:25;;;;;;;5.47;1.30;;;17.40;99.90;;;;;;7334741;32;20180;-63
2022/07/26 20:04:27;;;;;;;5.37;1.23;;;17.30;99.90;;;;;;7335432;32;20183;-64
2022/07/26 20:08:29;;;;;;;6.95;1.48;;;17.40;99.90;;;;;;7334185;32;20126;-64
2022/07/26 20:12:33;;;;;;;11.07;1.70;;;17.40;99.90;;;;;;7332767;32;20130;-64
2022/07/26 20:16:34;;;;;;;7.80;1.23;;;17.40;99.90;;;;;;7334584;32;20146;-64
2022/07/26 20:20:36;;;;;;;5.65;0.98;;;17.30;99.90;;;;;;7333852;32;20119;-65
2022/07/26 20:24:38;;;;;;;4.82;1.17;;;17.20;99.90;;;;;;7334917;32;20128;-65
2022/07/26 20:28:41;;;;;;;4.90;1.00;;;17.20;99.90;;;;;;7334372;32;20352;-65
2022/07/26 20:32:43;;;;;;;6.20;2.00;;;17.10;99.90;;;;;;7334760;32;20112;-64
2022/07/26 20:36:45;;;;;;;6.55;1.30;;;17.10;99.90;;;;;;7333822;32;20112;-64
2022/07/26 20:40:47;;;;;;;5.75;1.08;;;17.10;99.90;;;;;;7333445;32;20196;-64
2022/07/26 20:44:48;;;;;;;5.32;1.02;;;17.10;99.90;;;;;;7334195;32;20180;-64
2022/07/26 20:48:50;;;;;;;4.95;1.10;;;17.00;99.90;;;;;;7333503;32;20186;-64
2022/07/26 20:52:52;;;;;;;6.72;1.15;;;16.90;99.90;;;;;;7333401;32;20126;-65
2022/07/26 20:56:54;;;;;;;4.78;1.15;;;16.90;99.90;;;;;;7351059;32;20195;-63
2022/07/26 21:00:56;;;;;;;7.35;1.05;;;16.90;99.90;;;;;;7333278;32;20245;-63
2022/07/26 21:04:57;;;;;;;3.97;0.82;;;16.90;99.90;;;;;;7333502;32;20131;-65
2022/07/26 21:08:59;;;;;;;5.55;0.88;;;16.90;99.90;;;;;;7332548;32;20274;-64